Time;durP1;ratioP1;P1;durP2;ratioP2;P2;SDS_P1;SDS_P2;PMS_P1;PMS_P2;Temp;Humidity;BMP_temperature;BMP_pressure;BME280_temperature;BME280_humidity;BME280_pressure;Samples;Min_cycle;Max_cycle;Signal;HPM_P1;HPM_P2
2023/05/23 00:00:14;;;;;;;101.60;68.50;;;;;;;-128.00;-1.00;-1.00;97887;295;1003377;-30
2023/05/23 00:02:40;;;;;;;73.30;54.90;;;;;;;-128.00;-1.00;-1.00;98040;295;1003225;-30
2023/05/23 00:05:07;;;;;;;168.60;125.60;;;;;;;-128.00;-1.00;-1.00;97654;295;1003415;-37
2023/05/23 00:07:32;;;;;;;17.50;12.80;;;;;;;-128.00;-1.00;-1.00;97886;295;1003783;-30
2023/05/23 00:09:58;;;;;;;47.70;39.80;;;;;;;-128.00;-1.00;-1.00;97774;295;1003218;-32
2023/05/23 00:12:23;;;;;;;82.40;54.70;;;;;;;-128.00;-1.00;-1.00;97953;295;1003043;-31
2023/05/23 00:14:49;;;;;;;143.60;109.60;;;;;;;-128.00;-1.00;-1.00;97926;295;1003012;-30
2023/05/23 00:17:16;;;;;;;130.50;95.40;;;;;;;-128.00;-1.00;-1.00;97766;296;1005151;-30
2023/05/23 00:19:44;;;;;;;62.80;40.70;;;;;;;-128.00;-1.00;-1.00;97864;285;1003183;-34
2023/05/23 00:22:11;;;;;;;29.60;12.80;;;;;;;-128.00;-1.00;-1.00;97985;295;1004857;-34
2023/05/23 00:24:37;;;;;;;12.70;7.80;;;;;;;-128.00;-1.00;-1.00;97850;295;1003982;-31
2023/05/23 00:27:03;;;;;;;17.70;14.50;;;;;;;-128.00;-1.00;-1.00;97900;295;1004253;-33
2023/05/23 00:29:28;;;;;;;71.80;50.50;;;;;;;-128.00;-1.00;-1.00;98038;295;1003889;-33
2023/05/23 00:31:54;;;;;;;168.10;110.00;;;;;;;-128.00;-1.00;-1.00;97955;295;1003446;-29
2023/05/23 00:34:20;;;;;;;63.60;46.60;;;;;;;-128.00;-1.00;-1.00;97714;295;1004113;-34
2023/05/23 00:36:49;;;;;;;72.70;52.10;;;;;;;-128.00;-1.00;-1.00;97757;295;1003173;-33
2023/05/23 00:39:18;;;;;;;56.20;46.30;;;;;;;-128.00;-1.00;-1.00;97935;285;1003346;-34
2023/05/23 00:41:46;;;;;;;30.30;21.50;;;;;;;-128.00;-1.00;-1.00;97904;285;1002544;-31
2023/05/23 00:44:12;;;;;;;27.70;22.00;;;;;;;-128.00;-1.00;-1.00;97929;295;1003891;-34
2023/05/23 00:46:37;;;;;;;12.70;9.10;;;;;;;-128.00;-1.00;-1.00;97827;295;1004352;-35
2023/05/23 00:49:03;;;;;;;10.20;5.90;;;;;;;-128.00;-1.00;-1.00;97926;296;1004319;-31
2023/05/23 00:51:30;;;;;;;13.60;6.40;;;;;;;-128.00;-1.00;-1.00;97803;295;1003478;-30
2023/05/23 00:53:56;;;;;;;20.90;8.20;;;;;;;-128.00;-1.00;-1.00;97832;295;1003786;-29
2023/05/23 00:56:21;;;;;;;22.70;13.10;;;;;;;-128.00;-1.00;-1.00;97802;297;1004973;-33
2023/05/23 00:58:47;;;;;;;25.30;14.30;;;;;;;-128.00;-1.00;-1.00;97864;296;1003881;-33
2023/05/23 01:01:13;;;;;;;12.40;8.30;;;;;;;-128.00;-1.00;-1.00;97881;295;1003141;-27
2023/05/23 01:03:39;;;;;;;12.20;7.70;;;;;;;-128.00;-1.00;-1.00;97925;296;1004964;-33
2023/05/23 01:06:06;;;;;;;9.60;6.40;;;;;;;-128.00;-1.00;-1.00;97769;285;1005553;-28
2023/05/23 01:08:31;;;;;;;11.00;7.80;;;;;;;-128.00;-1.00;-1.00;97856;285;1003411;-34
2023/05/23 01:11:00;;;;;;;10.00;7.30;;;;;;;-128.00;-1.00;-1.00;97867;297;1003631;-34
2023/05/23 01:13:49;;;;;;;12.80;7.90;;;;;;;-128.00;-1.00;-1.00;97910;288;1003808;-29
2023/05/23 01:16:29;;;;;;;10.30;8.00;;;;;;;-128.00;-1.00;-1.00;97968;295;1003369;-29
2023/05/23 01:18:59;;;;;;;13.10;7.70;;;;;;;-128.00;-1.00;-1.00;97827;288;1004814;-29
2023/05/23 01:21:24;;;;;;;14.60;9.80;;;;;;;-128.00;-1.00;-1.00;97837;295;1004261;-29
2023/05/23 01:24:11;;;;;;;29.70;8.50;;;;;;;-128.00;-1.00;-1.00;97775;295;1004960;-29
2023/05/23 01:26:56;;;;;;;17.00;9.60;;;;;;;-128.00;-1.00;-1.00;97799;295;1004317;-28
2023/05/23 01:29:31;;;;;;;17.50;8.80;;;;;;;-128.00;-1.00;-1.00;97928;295;1004141;-30
2023/05/23 01:31:57;;;;;;;17.20;9.60;;;;;;;-128.00;-1.00;-1.00;97798;295;1003302;-31
2023/05/23 01:34:23;;;;;;;22.20;10.20;;;;;;;-128.00;-1.00;-1.00;97937;295;1003712;-33
2023/05/23 01:36:49;;;;;;;16.30;9.70;;;;;;;-128.00;-1.00;-1.00;97834;296;1002992;-37
2023/05/23 01:39:15;;;;;;;19.20;8.80;;;;;;;-128.00;-1.00;-1.00;97946;295;1004132;-30
2023/05/23 01:41:41;;;;;;;13.00;9.30;;;;;;;-128.00;-1.00;-1.00;98025;295;1003598;-29
2023/05/23 01:44:06;;;;;;;13.50;9.80;;;;;;;-128.00;-1.00;-1.00;97692;295;1139716;-29
2023/05/23 01:46:32;;;;;;;10.30;7.80;;;;;;;-128.00;-1.00;-1.00;97749;285;1002585;-33
2023/05/23 01:48:58;;;;;;;10.90;8.20;;;;;;;-128.00;-1.00;-1.00;98033;288;1005711;-33
2023/05/23 01:51:25;;;;;;;9.00;7.10;;;;;;;-128.00;-1.00;-1.00;97972;296;1003321;-34
2023/05/23 01:53:51;;;;;;;14.80;9.10;;;;;;;-128.00;-1.00;-1.00;97925;295;1004319;-29
2023/05/23 01:56:17;;;;;;;11.20;8.00;;;;;;;-128.00;-1.00;-1.00;97926;295;1003403;-34
2023/05/23 01:58:42;;;;;;;11.80;8.30;;;;;;;-128.00;-1.00;-1.00;97908;284;1003100;-31
2023/05/23 02:01:08;;;;;;;13.80;7.90;;;;;;;-128.00;-1.00;-1.00;97903;295;1003097;-31
2023/05/23 02:03:34;;;;;;;15.50;10.20;;;;;;;-128.00;-1.00;-1.00;98075;296;1004175;-29
2023/05/23 02:06:00;;;;;;;27.70;10.30;;;;;;;-128.00;-1.00;-1.00;97916;296;1004476;-34
2023/05/23 02:08:25;;;;;;;18.80;13.90;;;;;;;-128.00;-1.00;-1.00;97953;295;1003507;-28
2023/05/23 02:10:51;;;;;;;15.90;10.50;;;;;;;-128.00;-1.00;-1.00;97866;288;1004911;-32
2023/05/23 02:13:17;;;;;;;16.10;9.20;;;;;;;-128.00;-1.00;-1.00;97946;295;1003619;-35
2023/05/23 02:15:43;;;;;;;24.70;9.80;;;;;;;-128.00;-1.00;-1.00;97926;295;1004397;-31
2023/05/23 02:18:08;;;;;;;14.80;9.20;;;;;;;-128.00;-1.00;-1.00;97844;296;1003730;-34
2023/05/23 02:20:34;;;;;;;16.40;10.30;;;;;;;-128.00;-1.00;-1.00;97638;295;1003832;-34
2023/05/23 02:22:59;;;;;;;17.50;10.30;;;;;;;-128.00;-1.00;-1.00;96735;296;2571404;-33
2023/05/23 02:25:25;;;;;;;29.40;11.70;;;;;;;-128.00;-1.00;-1.00;97939;295;1005756;-30
2023/05/23 02:27:51;;;;;;;22.10;11.90;;;;;;;-128.00;-1.00;-1.00;83025;296;3903332;-31
2023/05/23 02:30:17;;;;;;;11.80;8.30;;;;;;;-128.00;-1.00;-1.00;33423;288;7505773;-34
2023/05/23 02:32:45;;;;;;;11.80;8.30;;;;;;;-128.00;-1.00;-1.00;19635;296;7504471;-34
2023/05/23 02:35:11;;;;;;;12.30;9.50;;;;;;;-128.00;-1.00;-1.00;18631;288;7505174;-31
2023/05/23 02:37:37;;;;;;;13.50;8.00;;;;;;;-128.00;-1.00;-1.00;18608;297;7503856;-38
2023/05/23 02:40:06;;;;;;;14.70;6.30;;;;;;;-128.00;-1.00;-1.00;36297;288;7504266;-35
2023/05/23 02:42:32;;;;;;;10.30;7.40;;;;;;;-128.00;-1.00;-1.00;97841;296;1003083;-30
2023/05/23 02:44:58;;;;;;;12.30;7.60;;;;;;;-128.00;-1.00;-1.00;97847;296;1003989;-29
2023/05/23 02:47:23;;;;;;;14.70;7.90;;;;;;;-128.00;-1.00;-1.00;97904;284;1004329;-31
2023/05/23 02:49:49;;;;;;;13.00;8.10;;;;;;;-128.00;-1.00;-1.00;97999;285;1003489;-31
2023/05/23 02:52:15;;;;;;;10.20;8.10;;;;;;;-128.00;-1.00;-1.00;97912;295;1003820;-31
2023/05/23 02:54:41;;;;;;;8.60;7.10;;;;;;;-128.00;-1.00;-1.00;97687;296;1005219;-28
2023/05/23 02:57:07;;;;;;;6.40;4.60;;;;;;;-128.00;-1.00;-1.00;97930;296;1003806;-29
2023/05/23 02:59:32;;;;;;;9.80;7.20;;;;;;;-128.00;-1.00;-1.00;86828;295;3002852;-30
2023/05/23 03:01:58;;;;;;;12.60;7.00;;;;;;;-128.00;-1.00;-1.00;97041;288;1005263;-30
2023/05/23 03:04:24;;;;;;;12.50;7.90;;;;;;;-128.00;-1.00;-1.00;96165;295;2055041;-30
2023/05/23 03:06:53;;;;;;;12.50;7.50;;;;;;;-128.00;-1.00;-1.00;98061;296;1003172;-29
2023/05/23 03:09:18;;;;;;;11.60;8.00;;;;;;;-128.00;-1.00;-1.00;97948;296;1003505;-34
2023/05/23 03:11:44;;;;;;;17.30;7.80;;;;;;;-128.00;-1.00;-1.00;97560;285;1003703;-30
2023/05/23 03:14:10;;;;;;;11.60;7.90;;;;;;;-128.00;-1.00;-1.00;97607;295;1003855;-35
2023/05/23 03:16:35;;;;;;;18.60;8.60;;;;;;;-128.00;-1.00;-1.00;98109;295;1003051;-34
2023/05/23 03:19:01;;;;;;;16.20;10.00;;;;;;;-128.00;-1.00;-1.00;98001;295;1003851;-30
2023/05/23 03:21:27;;;;;;;12.20;8.90;;;;;;;-128.00;-1.00;-1.00;97897;295;1003156;-30
2023/05/23 03:23:52;;;;;;;20.00;11.90;;;;;;;-128.00;-1.00;-1.00;97904;288;1003408;-30
2023/05/23 03:26:18;;;;;;;16.90;9.40;;;;;;;-128.00;-1.00;-1.00;97813;296;1003717;-30
2023/05/23 03:28:44;;;;;;;16.70;8.40;;;;;;;-128.00;-1.00;-1.00;97957;296;1003857;-30
2023/05/23 03:31:09;;;;;;;8.00;6.40;;;;;;;-128.00;-1.00;-1.00;98107;284;1003644;-29
2023/05/23 03:33:35;;;;;;;9.50;6.90;;;;;;;-128.00;-1.00;-1.00;97928;295;1004649;-30
2023/05/23 03:36:01;;;;;;;10.50;6.60;;;;;;;-128.00;-1.00;-1.00;97805;296;1003434;-29
2023/05/23 03:38:26;;;;;;;11.90;7.10;;;;;;;-128.00;-1.00;-1.00;97853;286;1004008;-32
2023/05/23 03:40:52;;;;;;;18.70;7.80;;;;;;;-128.00;-1.00;-1.00;98029;295;1003113;-28
2023/05/23 03:43:18;;;;;;;9.00;6.70;;;;;;;-128.00;-1.00;-1.00;98080;295;1002888;-36
2023/05/23 03:45:44;;;;;;;22.40;9.40;;;;;;;-128.00;-1.00;-1.00;97913;296;1003115;-36
2023/05/23 03:48:10;;;;;;;12.10;8.80;;;;;;;-128.00;-1.00;-1.00;97959;296;1003715;-35
2023/05/23 03:50:35;;;;;;;11.30;7.70;;;;;;;-128.00;-1.00;-1.00;98005;296;1004607;-33
2023/05/23 03:53:01;;;;;;;18.10;7.20;;;;;;;-128.00;-1.00;-1.00;97946;296;1003903;-30
2023/05/23 03:55:26;;;;;;;10.70;6.60;;;;;;;-128.00;-1.00;-1.00;97901;295;1003906;-33
2023/05/23 03:57:52;;;;;;;6.30;5.40;;;;;;;-128.00;-1.00;-1.00;97879;297;1003725;-28
2023/05/23 04:00:18;;;;;;;6.30;5.60;;;;;;;-128.00;-1.00;-1.00;98010;296;1004261;-34
2023/05/23 04:02:47;;;;;;;4.50;4.10;;;;;;;-128.00;-1.00;-1.00;98032;295;1003672;-34
2023/05/23 04:05:12;;;;;;;12.90;5.80;;;;;;;-128.00;-1.00;-1.00;98088;295;1002895;-33
2023/05/23 04:07:39;;;;;;;10.00;5.90;;;;;;;-128.00;-1.00;-1.00;98013;295;1003507;-29
2023/05/23 04:10:05;;;;;;;5.80;5.20;;;;;;;-128.00;-1.00;-1.00;98117;295;1003957;-30
2023/05/23 04:12:30;;;;;;;7.30;6.30;;;;;;;-128.00;-1.00;-1.00;98091;296;1003024;-34
2023/05/23 04:14:59;;;;;;;5.20;4.70;;;;;;;-128.00;-1.00;-1.00;97985;295;1004311;-34
2023/05/23 04:17:28;;;;;;;6.40;5.50;;;;;;;-128.00;-1.00;-1.00;97861;296;1002860;-30
2023/05/23 04:19:53;;;;;;;13.10;5.90;;;;;;;-128.00;-1.00;-1.00;97984;295;1003336;-31
2023/05/23 04:22:19;;;;;;;16.80;6.00;;;;;;;-128.00;-1.00;-1.00;98071;284;1003843;-35
2023/05/23 04:24:45;;;;;;;7.00;6.00;;;;;;;-128.00;-1.00;-1.00;97808;296;1003646;-34
2023/05/23 04:27:10;;;;;;;7.70;5.70;;;;;;;-128.00;-1.00;-1.00;97910;296;1003124;-35
2023/05/23 04:29:37;;;;;;;12.70;5.90;;;;;;;-128.00;-1.00;-1.00;97938;296;1004351;-29
2023/05/23 04:32:02;;;;;;;10.60;5.30;;;;;;;-128.00;-1.00;-1.00;97909;295;1004599;-33
2023/05/23 04:34:29;;;;;;;6.00;5.00;;;;;;;-128.00;-1.00;-1.00;97970;284;1003044;-29
2023/05/23 04:36:55;;;;;;;8.20;5.80;;;;;;;-128.00;-1.00;-1.00;97899;296;1003452;-35
2023/05/23 04:39:20;;;;;;;18.40;7.40;;;;;;;-128.00;-1.00;-1.00;97877;296;1003767;-34
2023/05/23 04:41:46;;;;;;;23.70;6.80;;;;;;;-128.00;-1.00;-1.00;97919;285;1003283;-30
2023/05/23 04:44:13;;;;;;;9.40;5.20;;;;;;;-128.00;-1.00;-1.00;97898;295;1003109;-30
2023/05/23 04:46:40;;;;;;;8.50;5.70;;;;;;;-128.00;-1.00;-1.00;97878;296;1004822;-31
2023/05/23 04:49:07;;;;;;;12.10;5.20;;;;;;;-128.00;-1.00;-1.00;97891;296;1003166;-31
2023/05/23 04:51:34;;;;;;;7.00;5.80;;;;;;;-128.00;-1.00;-1.00;97836;296;1003652;-36
2023/05/23 04:54:00;;;;;;;12.40;5.50;;;;;;;-128.00;-1.00;-1.00;97878;295;1004129;-38
2023/05/23 04:56:28;;;;;;;9.70;5.50;;;;;;;-128.00;-1.00;-1.00;97863;296;1003568;-35
2023/05/23 04:58:54;;;;;;;15.10;6.60;;;;;;;-128.00;-1.00;-1.00;97939;295;1004151;-35
2023/05/23 05:01:23;;;;;;;15.40;5.50;;;;;;;-128.00;-1.00;-1.00;97999;295;1003430;-30
2023/05/23 05:03:49;;;;;;;11.10;5.40;;;;;;;-128.00;-1.00;-1.00;94652;285;2951633;-31
2023/05/23 05:06:16;;;;;;;8.40;4.40;;;;;;;-128.00;-1.00;-1.00;95099;296;2345411;-30
2023/05/23 05:08:42;;;;;;;6.30;5.60;;;;;;;-128.00;-1.00;-1.00;97294;295;1002942;-30
2023/05/23 05:11:10;;;;;;;8.30;5.60;;;;;;;-128.00;-1.00;-1.00;27351;288;7106010;-32
2023/05/23 05:13:36;;;;;;;6.10;4.40;;;;;;;-128.00;-1.00;-1.00;36351;296;7503836;-35
2023/05/23 05:16:01;;;;;;;10.30;5.60;;;;;;;-128.00;-1.00;-1.00;97813;296;1003565;-34
2023/05/23 05:18:27;;;;;;;8.30;4.40;;;;;;;-128.00;-1.00;-1.00;97916;295;1004443;-30
2023/05/23 05:20:53;;;;;;;13.40;4.10;;;;;;;-128.00;-1.00;-1.00;97973;295;1004447;-36
2023/05/23 05:23:19;;;;;;;8.30;5.40;;;;;;;-128.00;-1.00;-1.00;97879;295;1002576;-37
2023/05/23 05:25:45;;;;;;;6.90;4.20;;;;;;;-128.00;-1.00;-1.00;97858;285;1003462;-37
2023/05/23 05:28:11;;;;;;;4.90;4.30;;;;;;;-128.00;-1.00;-1.00;97917;295;1003896;-36
2023/05/23 05:30:37;;;;;;;6.80;3.90;;;;;;;-128.00;-1.00;-1.00;97909;295;1003643;-31
2023/05/23 05:33:03;;;;;;;5.20;4.50;;;;;;;-128.00;-1.00;-1.00;97793;295;1004020;-32
2023/05/23 05:35:32;;;;;;;6.00;4.10;;;;;;;-128.00;-1.00;-1.00;78873;295;7504011;-34
2023/05/23 05:37:59;;;;;;;4.30;3.80;;;;;;;-128.00;-1.00;-1.00;39776;295;7505986;-31
2023/05/23 05:40:25;;;;;;;4.00;3.10;;;;;;;-128.00;-1.00;-1.00;97863;295;1003946;-35
2023/05/23 05:42:50;;;;;;;3.60;3.20;;;;;;;-128.00;-1.00;-1.00;98045;296;1005290;-35
2023/05/23 05:45:16;;;;;;;4.60;3.30;;;;;;;-128.00;-1.00;-1.00;97651;296;1004356;-32
2023/05/23 05:47:43;;;;;;;4.70;4.10;;;;;;;-128.00;-1.00;-1.00;97998;295;1003321;-35
2023/05/23 05:50:10;;;;;;;4.60;3.70;;;;;;;-128.00;-1.00;-1.00;97954;296;1003825;-31
2023/05/23 05:52:38;;;;;;;6.40;2.90;;;;;;;-128.00;-1.00;-1.00;97871;296;1004324;-31
2023/05/23 05:55:05;;;;;;;4.50;3.10;;;;;;;-128.00;-1.00;-1.00;98006;288;1003248;-37
2023/05/23 05:57:32;;;;;;;6.70;3.50;;;;;;;-128.00;-1.00;-1.00;97791;296;1004314;-36
2023/05/23 05:59:57;;;;;;;4.80;3.20;;;;;;;-128.00;-1.00;-1.00;97963;295;1003279;-32
2023/05/23 06:02:23;;;;;;;6.40;3.80;;;;;;;-128.00;-1.00;-1.00;97993;295;1004281;-31
2023/05/23 06:04:51;;;;;;;5.10;4.50;;;;;;;-128.00;-1.00;-1.00;65164;295;7503467;-32
2023/05/23 06:07:19;;;;;;;6.10;3.70;;;;;;;-128.00;-1.00;-1.00;21167;296;7504098;-33
2023/05/23 06:09:45;;;;;;;6.90;4.10;;;;;;;-128.00;-1.00;-1.00;77211;295;7395194;-31
2023/05/23 06:12:10;;;;;;;5.20;4.00;;;;;;;-128.00;-1.00;-1.00;97815;296;1003278;-31
2023/05/23 06:14:36;;;;;;;5.80;3.70;;;;;;;-128.00;-1.00;-1.00;97874;296;1003184;-31
2023/05/23 06:17:02;;;;;;;8.20;4.30;;;;;;;-128.00;-1.00;-1.00;97818;296;1002928;-34
2023/05/23 06:19:27;;;;;;;5.10;3.80;;;;;;;-128.00;-1.00;-1.00;97891;296;1003127;-36
2023/05/23 06:21:53;;;;;;;5.80;4.00;;;;;;;-128.00;-1.00;-1.00;97772;295;1004245;-31
2023/05/23 06:24:19;;;;;;;6.30;3.60;;;;;;;-128.00;-1.00;-1.00;97834;296;1002826;-38
2023/05/23 06:26:44;;;;;;;9.00;4.00;;;;;;;-128.00;-1.00;-1.00;73975;288;3007339;-33
2023/05/23 06:29:12;;;;;;;13.30;3.60;;;;;;;-128.00;-1.00;-1.00;19639;288;7504819;-36
2023/05/23 06:31:37;;;;;;;6.10;3.60;;;;;;;-128.00;-1.00;-1.00;18481;336;7504821;-36
2023/05/23 06:34:03;;;;;;;6.00;3.60;;;;;;;-128.00;-1.00;-1.00;18459;296;7504700;-36
2023/05/23 06:36:30;;;;;;;5.50;4.30;;;;;;;-128.00;-1.00;-1.00;18466;288;7504704;-32
2023/05/23 06:38:56;;;;;;;5.20;4.10;;;;;;;-128.00;-1.00;-1.00;18479;296;7504702;-32
2023/05/23 06:41:22;;;;;;;6.20;4.20;;;;;;;-128.00;-1.00;-1.00;18878;288;7504634;-32
2023/05/23 06:43:48;;;;;;;6.30;3.70;;;;;;;-128.00;-1.00;-1.00;18892;288;7504186;-33
2023/05/23 06:46:14;;;;;;;5.00;4.00;;;;;;;-128.00;-1.00;-1.00;20425;319;7504951;-35
2023/05/23 06:48:42;;;;;;;7.30;4.20;;;;;;;-128.00;-1.00;-1.00;19270;288;7504525;-38
2023/05/23 06:51:09;;;;;;;5.50;4.70;;;;;;;-128.00;-1.00;-1.00;18928;295;7504598;-32
2023/05/23 06:53:34;;;;;;;7.80;4.80;;;;;;;-128.00;-1.00;-1.00;18772;284;7505363;-33
2023/05/23 06:56:00;;;;;;;17.20;4.80;;;;;;;-128.00;-1.00;-1.00;18462;295;7504312;-33
2023/05/23 06:58:27;;;;;;;8.90;4.60;;;;;;;-128.00;-1.00;-1.00;18664;296;7504112;-33
2023/05/23 07:00:52;;;;;;;5.20;4.60;;;;;;;-128.00;-1.00;-1.00;18498;296;7504970;-32
2023/05/23 07:03:18;;;;;;;4.70;4.00;;;;;;;-128.00;-1.00;-1.00;18486;287;7505769;-36
2023/05/23 07:05:43;;;;;;;5.80;4.80;;;;;;;-128.00;-1.00;-1.00;18500;288;7504456;-32
2023/05/23 07:08:10;;;;;;;9.90;4.50;;;;;;;-128.00;-1.00;-1.00;18910;288;7504407;-34
2023/05/23 07:10:37;;;;;;;9.40;4.50;;;;;;;-128.00;-1.00;-1.00;18923;288;7504435;-36
2023/05/23 07:13:03;;;;;;;5.20;3.50;;;;;;;-128.00;-1.00;-1.00;18474;297;7506004;-35
2023/05/23 07:15:29;;;;;;;6.50;4.80;;;;;;;-128.00;-1.00;-1.00;18893;347;7505307;-32
2023/05/23 07:17:55;;;;;;;4.90;4.30;;;;;;;-128.00;-1.00;-1.00;18906;288;7504554;-32
2023/05/23 07:20:21;;;;;;;5.30;4.20;;;;;;;-128.00;-1.00;-1.00;18879;288;7505980;-32
2023/05/23 07:22:50;;;;;;;9.90;4.60;;;;;;;-128.00;-1.00;-1.00;20320;288;7504501;-31
2023/05/23 07:25:16;;;;;;;9.90;3.20;;;;;;;-128.00;-1.00;-1.00;18449;297;7505372;-37
2023/05/23 07:27:41;;;;;;;6.10;3.80;;;;;;;-128.00;-1.00;-1.00;18489;347;7504882;-37
2023/05/23 07:30:11;;;;;;;8.30;3.40;;;;;;;-128.00;-1.00;-1.00;18513;296;7504466;-37
2023/05/23 07:32:36;;;;;;;4.60;3.80;;;;;;;-128.00;-1.00;-1.00;18481;284;7504439;-33
2023/05/23 07:35:02;;;;;;;3.60;3.20;;;;;;;-128.00;-1.00;-1.00;18486;347;7504970;-36
2023/05/23 07:37:28;;;;;;;5.80;2.50;;;;;;;-128.00;-1.00;-1.00;18464;285;7504890;-30
2023/05/23 07:39:54;;;;;;;7.80;4.90;;;;;;;-128.00;-1.00;-1.00;18894;295;7504698;-35
2023/05/23 07:42:21;;;;;;;3.80;3.50;;;;;;;-128.00;-1.00;-1.00;19619;288;7504347;-31
2023/05/23 07:44:47;;;;;;;8.40;4.90;;;;;;;-128.00;-1.00;-1.00;18895;340;7504420;-36
2023/05/23 07:47:13;;;;;;;4.70;4.20;;;;;;;-128.00;-1.00;-1.00;19413;288;7504175;-31
2023/05/23 07:49:39;;;;;;;5.40;4.20;;;;;;;-128.00;-1.00;-1.00;18900;295;7504422;-34
2023/05/23 07:52:05;;;;;;;6.30;4.30;;;;;;;-128.00;-1.00;-1.00;18445;289;7504606;-31
2023/05/23 07:54:32;;;;;;;9.30;4.20;;;;;;;-128.00;-1.00;-1.00;18886;295;7504177;-31
2023/05/23 07:56:58;;;;;;;9.20;3.90;;;;;;;-128.00;-1.00;-1.00;19609;315;7504698;-32
2023/05/23 07:59:24;;;;;;;5.50;3.50;;;;;;;-128.00;-1.00;-1.00;19092;289;7504211;-32
2023/05/23 08:01:50;;;;;;;5.30;3.70;;;;;;;-128.00;-1.00;-1.00;19173;348;7504488;-32
2023/05/23 08:04:17;;;;;;;9.70;3.50;;;;;;;-128.00;-1.00;-1.00;19587;296;7504626;-32
2023/05/23 08:06:46;;;;;;;3.10;2.90;;;;;;;-128.00;-1.00;-1.00;20290;296;7504237;-35
2023/05/23 08:09:12;;;;;;;3.40;2.70;;;;;;;-128.00;-1.00;-1.00;19372;288;7504101;-36
2023/05/23 08:11:38;;;;;;;5.80;3.20;;;;;;;-128.00;-1.00;-1.00;19125;296;7504233;-36
2023/05/23 08:14:05;;;;;;;4.30;3.70;;;;;;;-128.00;-1.00;-1.00;18868;296;7505054;-32
2023/05/23 08:16:31;;;;;;;7.40;3.30;;;;;;;-128.00;-1.00;-1.00;18856;295;7505096;-36
2023/05/23 08:18:57;;;;;;;8.90;3.70;;;;;;;-128.00;-1.00;-1.00;18889;288;7505320;-36
2023/05/23 08:21:23;;;;;;;3.60;3.10;;;;;;;-128.00;-1.00;-1.00;19020;288;7504144;-32
2023/05/23 08:23:49;;;;;;;5.50;3.10;;;;;;;-128.00;-1.00;-1.00;18866;296;7504648;-35
2023/05/23 08:26:15;;;;;;;5.80;4.00;;;;;;;-128.00;-1.00;-1.00;18894;296;7504545;-31
2023/05/23 08:28:41;;;;;;;4.80;3.30;;;;;;;-128.00;-1.00;-1.00;19327;296;7504416;-32
2023/05/23 08:31:07;;;;;;;4.70;3.10;;;;;;;-128.00;-1.00;-1.00;18472;285;7506521;-37
2023/05/23 08:33:34;;;;;;;2.70;1.90;;;;;;;-128.00;-1.00;-1.00;19594;285;7504765;-35
2023/05/23 08:36:00;;;;;;;12.70;3.80;;;;;;;-128.00;-1.00;-1.00;20350;347;7505186;-33
2023/05/23 08:38:26;;;;;;;3.40;2.30;;;;;;;-128.00;-1.00;-1.00;19215;336;7504740;-36
2023/05/23 08:40:51;;;;;;;4.50;2.60;;;;;;;-128.00;-1.00;-1.00;18469;340;7505097;-36
2023/05/23 08:43:18;;;;;;;5.80;3.10;;;;;;;-128.00;-1.00;-1.00;19368;295;7504418;-36
2023/05/23 08:45:45;;;;;;;5.30;3.00;;;;;;;-128.00;-1.00;-1.00;19192;284;7504265;-32
2023/05/23 08:48:15;;;;;;;8.30;2.90;;;;;;;-128.00;-1.00;-1.00;18488;296;7507032;-32
2023/05/23 08:50:46;;;;;;;3.40;2.90;;;;;;;-128.00;-1.00;-1.00;18496;288;7505239;-33
2023/05/23 08:53:19;;;;;;;2.90;2.10;;;;;;;-128.00;-1.00;-1.00;18506;305;7504221;-32
2023/05/23 08:55:46;;;;;;;3.60;3.00;;;;;;;-128.00;-1.00;-1.00;18484;288;7505174;-35
2023/05/23 08:58:13;;;;;;;3.90;1.80;;;;;;;-128.00;-1.00;-1.00;18479;307;7504543;-32
2023/05/23 09:00:39;;;;;;;5.00;3.20;;;;;;;-128.00;-1.00;-1.00;18468;296;7505007;-33
2023/05/23 09:03:05;;;;;;;3.40;2.60;;;;;;;-128.00;-1.00;-1.00;18475;289;7505008;-36
2023/05/23 09:05:31;;;;;;;9.70;2.60;;;;;;;-128.00;-1.00;-1.00;18472;288;7504284;-36
2023/05/23 09:07:57;;;;;;;5.70;3.60;;;;;;;-128.00;-1.00;-1.00;18887;296;7504494;-32
2023/05/23 09:10:23;;;;;;;13.30;2.40;;;;;;;-128.00;-1.00;-1.00;18891;307;7505236;-32
2023/05/23 09:12:50;;;;;;;3.90;3.00;;;;;;;-128.00;-1.00;-1.00;18879;296;7504789;-32
2023/05/23 09:15:16;;;;;;;3.80;2.70;;;;;;;-128.00;-1.00;-1.00;18856;296;7504232;-32
2023/05/23 09:17:43;;;;;;;4.10;3.10;;;;;;;-128.00;-1.00;-1.00;18895;296;7504315;-32
2023/05/23 09:20:14;;;;;;;6.00;3.70;;;;;;;-128.00;-1.00;-1.00;18473;296;7504636;-32
2023/05/23 09:22:40;;;;;;;2.30;1.80;;;;;;;-128.00;-1.00;-1.00;18481;296;7505255;-36
2023/05/23 09:25:06;;;;;;;4.00;2.50;;;;;;;-128.00;-1.00;-1.00;18474;296;7505751;-35
2023/05/23 09:27:32;;;;;;;3.00;2.30;;;;;;;-128.00;-1.00;-1.00;18497;284;7506139;-36
2023/05/23 09:30:04;;;;;;;3.30;2.80;;;;;;;-128.00;-1.00;-1.00;18885;296;7504700;-33
2023/05/23 09:32:29;;;;;;;3.40;2.00;;;;;;;-128.00;-1.00;-1.00;18470;288;7504481;-36
2023/05/23 09:34:57;;;;;;;3.40;2.90;;;;;;;-128.00;-1.00;-1.00;18903;295;7506455;-32
2023/05/23 09:37:31;;;;;;;3.10;2.30;;;;;;;-128.00;-1.00;-1.00;18464;296;7504574;-33
2023/05/23 09:40:05;;;;;;;4.20;2.20;;;;;;;-128.00;-1.00;-1.00;18454;288;7504343;-33
2023/05/23 09:42:34;;;;;;;4.10;2.30;;;;;;;-128.00;-1.00;-1.00;18487;288;7504644;-33
2023/05/23 09:44:59;;;;;;;2.00;1.90;;;;;;;-128.00;-1.00;-1.00;18483;295;7504281;-36
2023/05/23 09:47:26;;;;;;;5.20;3.00;;;;;;;-128.00;-1.00;-1.00;18885;296;7504726;-36
2023/05/23 09:49:52;;;;;;;3.60;2.10;;;;;;;-128.00;-1.00;-1.00;18855;296;7504352;-36
2023/05/23 09:52:21;;;;;;;4.80;2.10;;;;;;;-128.00;-1.00;-1.00;18869;288;7504518;-36
2023/05/23 09:54:47;;;;;;;3.50;2.70;;;;;;;-128.00;-1.00;-1.00;18482;295;7504662;-32
2023/05/23 09:57:14;;;;;;;5.30;3.20;;;;;;;-128.00;-1.00;-1.00;18840;288;7505298;-36
2023/05/23 09:59:41;;;;;;;10.40;2.30;;;;;;;-128.00;-1.00;-1.00;18605;288;7504147;-33
2023/05/23 10:02:10;;;;;;;3.60;2.70;;;;;;;-128.00;-1.00;-1.00;18478;295;7505057;-36
2023/05/23 10:04:36;;;;;;;5.20;2.40;;;;;;;-128.00;-1.00;-1.00;18460;285;7505738;-36
2023/05/23 10:07:06;;;;;;;2.50;2.00;;;;;;;-128.00;-1.00;-1.00;18460;306;7506157;-39
2023/05/23 10:09:32;;;;;;;3.40;2.40;;;;;;;-128.00;-1.00;-1.00;18498;296;7504811;-32
2023/05/23 10:12:16;;;;;;;2.40;2.10;;;;;;;-128.00;-1.00;-1.00;18466;296;7504649;-36
2023/05/23 10:14:43;;;;;;;2.40;2.00;;;;;;;-128.00;-1.00;-1.00;18485;289;7504563;-33
2023/05/23 10:17:18;;;;;;;2.60;2.40;;;;;;;-128.00;-1.00;-1.00;18492;288;7506321;-32
2023/05/23 10:19:52;;;;;;;2.40;2.20;;;;;;;-128.00;-1.00;-1.00;18499;288;7506726;-36
2023/05/23 10:22:22;;;;;;;2.50;2.30;;;;;;;-128.00;-1.00;-1.00;18464;295;7505253;-32
2023/05/23 10:24:47;;;;;;;3.20;2.60;;;;;;;-128.00;-1.00;-1.00;18506;347;7505154;-32
2023/05/23 10:27:13;;;;;;;19.90;3.20;;;;;;;-128.00;-1.00;-1.00;18883;319;7505213;-35
2023/05/23 10:29:40;;;;;;;3.80;2.80;;;;;;;-128.00;-1.00;-1.00;18869;300;7504703;-32
2023/05/23 10:32:06;;;;;;;2.80;2.10;;;;;;;-128.00;-1.00;-1.00;18875;284;7504466;-32
2023/05/23 10:34:40;;;;;;;5.10;3.20;;;;;;;-128.00;-1.00;-1.00;18877;288;7505189;-35
2023/05/23 10:37:07;;;;;;;4.20;3.10;;;;;;;-128.00;-1.00;-1.00;18452;311;7505138;-31
2023/05/23 10:39:51;;;;;;;3.90;2.80;;;;;;;-128.00;-1.00;-1.00;18467;296;7506102;-36
2023/05/23 10:42:32;;;;;;;4.70;2.00;;;;;;;-128.00;-1.00;-1.00;18469;336;7504549;-31
2023/05/23 10:45:13;;;;;;;1.70;1.60;;;;;;;-128.00;-1.00;-1.00;18451;297;7504643;-36
2023/05/23 10:47:40;;;;;;;12.00;3.20;;;;;;;-128.00;-1.00;-1.00;18477;296;7504301;-32
2023/05/23 10:50:06;;;;;;;3.90;2.70;;;;;;;-128.00;-1.00;-1.00;18896;296;7505966;-32
2023/05/23 10:52:39;;;;;;;4.60;2.70;;;;;;;-128.00;-1.00;-1.00;18476;296;7504994;-36
2023/05/23 10:55:12;;;;;;;3.10;2.20;;;;;;;-128.00;-1.00;-1.00;18464;348;7506268;-32
2023/05/23 10:57:37;;;;;;;3.00;1.60;;;;;;;-128.00;-1.00;-1.00;18471;296;7504518;-35
2023/05/23 11:00:04;;;;;;;12.50;2.80;;;;;;;-128.00;-1.00;-1.00;18889;296;7504678;-35
2023/05/23 11:02:33;;;;;;;3.20;1.80;;;;;;;-128.00;-1.00;-1.00;19721;295;7503867;-35
2023/05/23 11:47:16;;;;;;;8.90;3.30;;;;;;;-98.12;9.06;19784.24;98326;293;1544199;-36
2023/05/23 11:49:45;;;;;;;10.90;4.90;;;;;;;-128.00;-1.00;-1.00;97429;285;1002603;-35
2023/05/23 11:52:11;;;;;;;4.90;4.00;;;;;;;-128.00;-1.00;-1.00;98050;293;1003791;-37
2023/05/23 11:54:39;;;;;;;12.80;3.90;;;;;;;-128.00;-1.00;-1.00;98131;293;1004594;-32
2023/05/23 11:57:04;;;;;;;2.00;1.60;;;;;;;-128.00;-1.00;-1.00;97745;293;1135822;-36
2023/05/23 11:59:30;;;;;;;8.10;3.20;;;;;;;-128.00;-1.00;-1.00;97911;294;1003340;-32
2023/05/23 12:01:56;;;;;;;7.80;4.00;;;;;;;-128.00;-1.00;-1.00;97977;293;1003802;-35
2023/05/23 12:04:21;;;;;;;5.80;3.80;;;;;;;-128.00;-1.00;-1.00;98153;293;1003564;-30
2023/05/23 12:06:48;;;;;;;5.10;3.90;;;;;;;-128.00;-1.00;-1.00;98070;293;1002946;-34
2023/05/23 12:09:14;;;;;;;5.00;3.60;;;;;;;-128.00;-1.00;-1.00;97999;293;1003903;-37